createdAt,value
2017-08-20T05:59:45.256Z,15.00
2017-08-20T06:02:14.449Z,15.00
2017-08-20T06:04:43.578Z,15.20
2017-08-20T06:07:11.871Z,15.20
2017-08-20T06:09:40.942Z,15.40
2017-08-20T06:12:09.232Z,15.40
2017-08-20T06:14:37.568Z,15.40
2017-08-20T06:17:07.483Z,15.40
2017-08-20T06:19:36.623Z,15.50
2017-08-20T06:22:05.227Z,15.50
2017-08-20T06:24:33.546Z,15.60
2017-08-20T06:27:03.419Z,15.70
2017-08-20T06:29:31.754Z,15.70
2017-08-20T06:32:00.250Z,15.90
2017-08-20T06:34:28.878Z,16.00
2017-08-20T06:36:57.162Z,16.00
2017-08-20T06:39:25.806Z,16.10
2017-08-20T06:41:54.552Z,16.20
2017-08-20T06:44:23.475Z,16.30
2017-08-20T06:46:53.459Z,16.50
2017-08-20T06:49:21.736Z,16.50
2017-08-20T06:51:50.053Z,16.60
2017-08-20T06:54:19.537Z,16.70
2017-08-20T06:56:47.943Z,16.70
2017-08-20T06:59:17.835Z,16.70
2017-08-20T07:01:46.915Z,16.70
2017-08-20T07:04:15.317Z,16.80
2017-08-20T07:06:44.530Z,16.90
2017-08-20T07:09:13.144Z,16.80
2017-08-20T07:11:42.522Z,16.90
2017-08-20T07:14:12.210Z,16.80
2017-08-20T07:16:41.666Z,16.80
2017-08-20T07:19:11.610Z,17.00
2017-08-20T07:21:40.670Z,17.10
2017-08-20T07:24:09.052Z,17.00
2017-08-20T07:26:37.351Z,17.20
2017-08-20T07:29:06.427Z,17.20
2017-08-20T07:31:34.738Z,17.20
2017-08-20T07:34:03.820Z,17.50
2017-08-20T07:36:32.906Z,17.60
2017-08-20T07:39:01.218Z,17.60
2017-08-20T07:41:29.742Z,17.50
2017-08-20T07:44:00.751Z,17.60
2017-08-20T07:46:29.071Z,17.60
2017-08-20T07:48:57.699Z,17.60
2017-08-20T07:51:26.698Z,17.60
2017-08-20T07:53:55.482Z,17.70
2017-08-20T07:56:23.822Z,17.80
2017-08-20T07:58:52.727Z,17.80
2017-08-20T08:01:21.294Z,17.90
2017-08-20T08:03:49.566Z,18.10
2017-08-20T08:06:17.867Z,18.20
2017-08-20T08:08:46.144Z,18.30
2017-08-20T08:11:14.449Z,18.50
2017-08-20T08:13:43.162Z,18.70
2017-08-20T08:16:11.647Z,19.00
2017-08-20T08:18:40.007Z,19.20
2017-08-20T08:21:08.435Z,19.30
2017-08-20T08:23:37.389Z,19.40
2017-08-20T08:26:07.619Z,19.60
2017-08-20T08:28:36.666Z,19.80
2017-08-20T08:31:05.490Z,19.60
2017-08-20T08:33:35.743Z,19.40
2017-08-20T08:36:04.554Z,19.40
2017-08-20T08:38:33.128Z,19.50
2017-08-20T08:41:02.199Z,19.60
2017-08-20T08:43:30.520Z,19.50
2017-08-20T08:45:59.690Z,19.50
2017-08-20T08:48:27.955Z,19.70
2017-08-20T08:50:58.227Z,19.70
2017-08-20T08:53:27.637Z,19.90
2017-08-20T08:55:55.903Z,20.00
2017-08-20T08:58:24.519Z,20.20
2017-08-20T09:00:52.822Z,20.50
2017-08-20T09:03:22.730Z,20.70
2017-08-20T09:05:52.523Z,20.70
2017-08-20T09:08:20.871Z,20.70
2017-08-20T09:10:49.468Z,21.00
2017-08-20T09:13:19.524Z,21.60
2017-08-20T09:15:47.832Z,21.60
2017-08-20T09:18:17.176Z,21.40
2017-08-20T09:20:45.461Z,21.40
2017-08-20T09:23:14.044Z,21.10
2017-08-20T09:25:42.403Z,21.20
2017-08-20T09:28:11.777Z,20.80
2017-08-20T09:30:40.343Z,20.80
2017-08-20T09:35:38.659Z,20.20
2017-08-20T09:38:07.338Z,20.20
2017-08-20T09:40:35.627Z,20.30
2017-08-20T09:43:03.930Z,20.60
2017-08-20T09:45:33.328Z,21.60
2017-08-20T09:48:01.634Z,21.60
2017-08-20T09:50:30.629Z,21.90
2017-08-20T09:52:58.954Z,22.00
2017-08-20T09:57:59.308Z,21.30
2017-08-20T10:00:27.627Z,21.30
2017-08-20T10:02:56.006Z,21.60
2017-08-20T10:05:25.103Z,22.10
2017-08-20T10:07:53.695Z,22.10
2017-08-20T10:10:22.584Z,22.10
2017-08-20T10:12:50.871Z,22.20
2017-08-20T10:15:20.221Z,22.50
2017-08-20T10:17:50.389Z,22.90
2017-08-20T10:20:19.856Z,23.80
2017-08-20T10:22:48.136Z,23.70
2017-08-20T10:25:16.780Z,24.00
2017-08-20T10:27:46.210Z,23.40
2017-08-20T10:30:14.553Z,23.40
2017-08-20T10:32:42.869Z,22.40
2017-08-20T10:35:12.406Z,21.20
2017-08-20T10:37:40.973Z,21.20
2017-08-20T10:40:09.290Z,20.60
2017-08-20T10:42:38.654Z,20.40
2017-08-20T10:45:07.725Z,19.60
2017-08-20T10:47:36.062Z,19.50
2017-08-20T10:50:04.599Z,19.30
2017-08-20T10:52:33.032Z,19.10
2017-08-20T10:55:02.185Z,19.10
2017-08-20T10:57:30.783Z,19.20
2017-08-20T11:00:00.799Z,19.30
2017-08-20T11:02:29.127Z,19.30
2017-08-20T11:04:58.077Z,19.40
2017-08-20T11:07:26.361Z,19.80
2017-08-20T11:09:55.043Z,20.20
2017-08-20T11:12:24.197Z,20.70
2017-08-20T11:14:52.511Z,22.70
2017-08-20T11:17:21.717Z,25.00
2017-08-20T11:19:52.679Z,28.10
2017-08-20T11:22:20.977Z,28.00
2017-08-20T11:24:50.126Z,28.20
2017-08-20T11:27:18.414Z,29.10
2017-08-20T11:29:46.819Z,30.00
2017-08-20T11:32:15.506Z,29.70
2017-08-20T11:34:44.390Z,29.50
2017-08-20T11:37:12.691Z,28.80
2017-08-20T11:42:12.839Z,28.40
2017-08-20T11:44:41.210Z,28.40
2017-08-20T11:47:09.803Z,29.10
2017-08-20T11:49:39.244Z,29.20
2017-08-20T11:52:07.528Z,29.10
2017-08-20T11:57:05.680Z,30.60
2017-08-20T11:59:35.464Z,30.30
2017-08-20T12:02:03.806Z,30.30
2017-08-20T12:04:32.988Z,30.90
2017-08-20T12:07:01.599Z,32.00
2017-08-20T12:09:31.623Z,33.30
2017-08-20T12:12:01.403Z,35.20
2017-08-20T12:14:29.792Z,35.10
2017-08-20T12:16:58.103Z,35.40
2017-08-20T12:19:26.484Z,35.60
2017-08-20T12:21:55.572Z,35.30
2017-08-20T12:24:24.250Z,35.30
2017-08-20T12:26:52.580Z,33.70
2017-08-20T12:29:21.634Z,29.50
2017-08-20T12:31:49.989Z,29.40
2017-08-20T12:34:18.838Z,27.70
2017-08-20T12:36:47.412Z,26.70
2017-08-20T12:39:16.377Z,26.10
2017-08-20T12:41:44.639Z,26.70
2017-08-20T12:44:13.266Z,26.70
2017-08-20T12:46:41.653Z,25.90
2017-08-20T12:51:40.984Z,30.30
2017-08-20T12:54:09.288Z,32.10
2017-08-20T12:56:38.730Z,34.10
2017-08-20T12:59:08.863Z,32.50
2017-08-20T13:01:37.191Z,32.50
2017-08-20T13:04:05.502Z,30.90
2017-08-20T13:06:34.121Z,31.00
2017-08-20T13:09:02.447Z,32.30
2017-08-20T13:11:31.035Z,34.10
2017-08-20T13:13:59.389Z,32.90
2017-08-20T13:16:28.730Z,31.90
2017-08-20T13:18:57.862Z,32.40
2017-08-20T13:21:26.605Z,32.40
2017-08-20T13:23:56.103Z,34.80
2017-08-20T13:28:55.126Z,34.20
2017-08-20T13:31:23.507Z,34.30
2017-08-20T13:36:22.096Z,36.70
2017-08-20T13:38:51.928Z,35.60
2017-08-20T13:41:20.244Z,35.60
2017-08-20T13:43:50.155Z,32.40
2017-08-20T13:46:18.456Z,32.30
2017-08-20T13:48:47.002Z,30.00
2017-08-20T13:51:15.587Z,28.70
2017-08-20T13:53:43.917Z,27.30
2017-08-20T14:01:12.742Z,25.40
2017-08-20T14:03:41.082Z,27.00
2017-08-20T14:06:09.686Z,29.00
2017-08-20T14:08:38.975Z,28.60
2017-08-20T14:13:37.078Z,30.50
2017-08-20T14:16:05.401Z,29.30
2017-08-20T14:18:34.028Z,28.00
2017-08-20T14:21:02.644Z,26.70
2017-08-20T14:23:30.957Z,26.00
2017-08-20T14:26:00.110Z,24.60
2017-08-20T14:28:28.661Z,24.50
2017-08-20T14:30:58.230Z,24.10
2017-08-20T14:33:29.486Z,24.10
2017-08-20T14:35:58.420Z,25.70
2017-08-20T14:38:26.701Z,25.00
2017-08-20T14:40:55.026Z,24.50
2017-08-20T14:43:23.371Z,24.10
2017-08-20T14:45:52.012Z,23.90
2017-08-20T14:48:20.300Z,23.60
2017-08-20T14:50:48.626Z,23.20
2017-08-20T14:53:16.980Z,22.90
2017-08-20T14:55:46.056Z,23.40
2017-08-20T14:58:15.570Z,23.40
2017-08-20T15:05:44.351Z,27.70
2017-08-20T15:08:12.637Z,28.70
2017-08-20T15:10:41.268Z,29.80
2017-08-20T15:13:09.597Z,31.10
2017-08-20T15:15:38.416Z,31.20
2017-08-20T15:18:06.829Z,31.60
2017-08-20T15:20:35.209Z,32.80
2017-08-20T15:23:05.355Z,33.60
2017-08-20T15:25:33.643Z,35.30
2017-08-20T15:28:02.916Z,35.50
2017-08-20T15:30:31.269Z,35.50
2017-08-20T15:32:59.564Z,35.70
2017-08-20T15:35:29.192Z,36.40
2017-08-20T15:37:57.522Z,36.00
2017-08-20T15:40:25.882Z,35.90
2017-08-20T15:42:55.276Z,36.20
2017-08-20T15:45:25.102Z,35.40
2017-08-20T15:47:53.373Z,35.40
2017-08-20T15:50:22.040Z,34.50
2017-08-20T15:52:51.511Z,33.10
2017-08-20T16:00:20.682Z,30.00
2017-08-20T16:02:48.986Z,29.90
2017-08-20T16:05:17.592Z,28.40
2017-08-20T16:07:48.850Z,27.10
2017-08-20T16:10:17.754Z,26.50
2017-08-20T16:12:46.333Z,26.00
2017-08-20T16:15:15.410Z,25.00
2017-08-20T16:17:44.089Z,24.90
2017-08-20T16:20:13.198Z,24.70
2017-08-20T16:22:41.878Z,24.00
2017-08-20T16:25:10.487Z,23.30
2017-08-20T16:27:38.743Z,23.00
2017-08-20T16:30:07.052Z,22.80
2017-08-20T16:32:35.603Z,22.50
2017-08-20T16:35:03.915Z,22.10
2017-08-20T16:37:32.281Z,21.70
2017-08-20T16:40:00.883Z,21.40
2017-08-20T16:42:29.183Z,21.20
2017-08-20T16:44:57.512Z,21.10
2017-08-20T16:47:26.488Z,20.90
2017-08-20T16:49:54.826Z,20.60
2017-08-20T16:52:23.165Z,19.50
2017-08-20T16:57:22.534Z,17.90
2017-08-20T16:59:50.832Z,17.80
2017-08-20T17:02:19.509Z,17.60
2017-08-20T17:04:47.804Z,17.50
2017-08-20T17:07:17.324Z,17.50
2017-08-20T17:09:47.825Z,17.60
2017-08-20T17:12:16.134Z,17.60
2017-08-20T17:14:45.224Z,17.70
2017-08-20T17:17:14.311Z,17.70
2017-08-20T17:19:42.846Z,17.60
2017-08-20T17:22:11.383Z,17.50
2017-08-20T17:24:40.611Z,17.40
2017-08-20T17:27:08.932Z,17.30
2017-08-20T17:29:37.255Z,17.30
2017-08-20T17:32:06.214Z,17.30
